RYR9JM LEMH-EGCC
Flight info
| Callsign | RYR9JM |
|---|---|
| Flight time | N/A |
| Altitude | 34000 |
| Route | MEROS N853 LUMAS DCT SOFFY DCT MRM DCT MTL DCT ETREK DCT MADOT DCT MOPEM DCT CACHI DCT AVLON DCT OKRIX DCT BRY DCT CLM DCT KOPOR DCT VESAN DCT RATUK DCT SOVAT L613 SANDY UN57 WELIN T420 ELVOS |
| Aircraft | B738/M-SDE2E3FGHIRWXY/LB1 |
Departure
| Time | 2026-04-30 13:17 |
|---|---|
| Airport | Menorca Airport (LEMH) |
Arrival
| Time | N/A |
|---|---|
| Airport | Manchester Airport (EGCC) |
| Time | Latitude | Longitude | Altitude | Speed | Heading |
|---|---|---|---|---|---|
| 2026-04-30 13:01 | 39.86576 | 4.22424 | 285 ft | 0 kts | 99° |
| 2026-04-30 13:10 | 39.86576 | 4.22425 | 285 ft | 0 kts | 99° |
| 2026-04-30 13:10 | 39.86576 | 4.22426 | 285 ft | 0 kts | 99° |
| 2026-04-30 13:11 | 39.86578 | 4.22402 | 286 ft | 4 kts | 92° |
| 2026-04-30 13:11 | 39.86576 | 4.22367 | 287 ft | 4 kts | 71° |
| 2026-04-30 13:12 | 39.86564 | 4.22340 | 288 ft | 4 kts | 27° |
| 2026-04-30 13:12 | 39.86551 | 4.22334 | 288 ft | 1 kts | 8° |
| 2026-04-30 13:12 | 39.86550 | 4.22334 | 288 ft | 1 kts | 8° |
| 2026-04-30 13:13 | 39.86588 | 4.22341 | 292 ft | 10 kts | 8° |
| 2026-04-30 13:14 | 39.86679 | 4.22361 | 292 ft | 17 kts | 9° |
| 2026-04-30 13:14 | 39.86810 | 4.22388 | 296 ft | 19 kts | 9° |
| 2026-04-30 13:14 | 39.86939 | 4.22260 | 299 ft | 13 kts | 319° |
| 2026-04-30 13:15 | 39.87035 | 4.22263 | 302 ft | 17 kts | 9° |
| 2026-04-30 13:15 | 39.87331 | 4.22324 | 311 ft | 18 kts | 8° |
| 2026-04-30 13:15 | 39.87395 | 4.22219 | 311 ft | 18 kts | 271° |
| 2026-04-30 13:16 | 39.87336 | 4.22089 | 309 ft | 17 kts | 202° |
| 2026-04-30 13:16 | 39.87170 | 4.22053 | 305 ft | 50 kts | 189° |
| 2026-04-30 13:16 | 39.86571 | 4.21929 | 302 ft | 122 kts | 189° |
| 2026-04-30 13:17 | 39.84268 | 4.21490 | 996 ft | 183 kts | 188° |
| 2026-04-30 13:17 | 39.82959 | 4.21224 | 1722 ft | 197 kts | 189° |
| 2026-04-30 13:17 | 39.79875 | 4.20541 | 2336 ft | 249 kts | 189° |
| 2026-04-30 13:18 | 39.78095 | 4.20161 | 2772 ft | 265 kts | 187° |
| 2026-04-30 13:18 | 39.74856 | 4.21658 | 4666 ft | 256 kts | 123° |
| 2026-04-30 13:18 | 39.74322 | 4.23852 | 5467 ft | 264 kts | 91° |
| 2026-04-30 13:19 | 39.74742 | 4.26208 | 6056 ft | 277 kts | 65° |
| 2026-04-30 13:19 | 39.75783 | 4.28333 | 6949 ft | 281 kts | 58° |
| 2026-04-30 13:19 | 39.76828 | 4.30492 | 7806 ft | 285 kts | 56° |
| 2026-04-30 13:19 | 39.78143 | 4.32452 | 8599 ft | 291 kts | 45° |
| 2026-04-30 13:20 | 39.79718 | 4.34143 | 9395 ft | 297 kts | 35° |
| 2026-04-30 13:20 | 39.81527 | 4.35481 | 10190 ft | 301 kts | 24° |
| 2026-04-30 13:20 | 39.83515 | 4.36398 | 10640 ft | 318 kts | 13° |
| 2026-04-30 13:20 | 39.85780 | 4.36850 | 10866 ft | 340 kts | 1° |
| 2026-04-30 13:21 | 39.88176 | 4.36715 | 11407 ft | 348 kts | 349° |
| 2026-04-30 13:21 | 39.90514 | 4.35946 | 12210 ft | 346 kts | 337° |
| 2026-04-30 13:21 | 39.92661 | 4.34568 | 13055 ft | 343 kts | 324° |
| 2026-04-30 13:22 | 39.96087 | 4.30247 | 14398 ft | 348 kts | 301° |
| 2026-04-30 13:22 | 39.97361 | 4.27564 | 15100 ft | 351 kts | 306° |
| 2026-04-30 13:22 | 40.01637 | 4.24485 | 16471 ft | 368 kts | 349° |
| 2026-04-30 13:23 | 40.04218 | 4.24475 | 17055 ft | 378 kts | 6° |
| 2026-04-30 13:23 | 40.09433 | 4.25818 | 18281 ft | 386 kts | 9° |
| 2026-04-30 13:24 | 40.14737 | 4.27299 | 19438 ft | 394 kts | 9° |
| 2026-04-30 13:24 | 40.20159 | 4.28770 | 20540 ft | 401 kts | 8° |
| 2026-04-30 13:25 | 40.25675 | 4.30236 | 21578 ft | 408 kts | 8° |
| 2026-04-30 13:25 | 40.31291 | 4.31721 | 22564 ft | 415 kts | 7° |
| 2026-04-30 13:26 | 40.39845 | 4.33990 | 23923 ft | 425 kts | 7° |
| 2026-04-30 13:26 | 40.45672 | 4.35542 | 24819 ft | 430 kts | 7° |
| 2026-04-30 13:27 | 40.51560 | 4.37094 | 25689 ft | 434 kts | 6° |
| 2026-04-30 13:28 | 40.60538 | 4.39205 | 26863 ft | 440 kts | 5° |
| 2026-04-30 13:28 | 40.66590 | 4.40622 | 27619 ft | 444 kts | 5° |
| 2026-04-30 13:28 | 40.69641 | 4.41346 | 27946 ft | 447 kts | 5° |
| 2026-04-30 13:29 | 40.75778 | 4.42810 | 28617 ft | 450 kts | 5° |
| 2026-04-30 13:29 | 40.81978 | 4.44296 | 29314 ft | 454 kts | 4° |
| 2026-04-30 13:30 | 40.91288 | 4.46526 | 30536 ft | 450 kts | 4° |
| 2026-04-30 13:31 | 40.97448 | 4.48030 | 31241 ft | 450 kts | 4° |
| 2026-04-30 13:31 | 41.06646 | 4.50287 | 32369 ft | 446 kts | 4° |
| 2026-04-30 13:32 | 41.12740 | 4.51775 | 33053 ft | 444 kts | 4° |
| 2026-04-30 13:32 | 41.18772 | 4.53244 | 33652 ft | 444 kts | 4° |
| 2026-04-30 13:33 | 41.24843 | 4.54726 | 34086 ft | 447 kts | 4° |
| 2026-04-30 13:34 | 41.34014 | 4.56974 | 34083 ft | 442 kts | 4° |
| 2026-04-30 13:35 | 41.46062 | 4.59943 | 34097 ft | 441 kts | 4° |
| 2026-04-30 13:36 | 41.58131 | 4.62928 | 34100 ft | 442 kts | 4° |
| 2026-04-30 13:36 | 41.67207 | 4.65180 | 34103 ft | 443 kts | 4° |
| 2026-04-30 13:37 | 41.76284 | 4.67655 | 34104 ft | 447 kts | 8° |
| 2026-04-30 13:38 | 41.85262 | 4.71257 | 34123 ft | 449 kts | 10° |
| 2026-04-30 13:39 | 41.97182 | 4.76062 | 34140 ft | 448 kts | 9° |
| 2026-04-30 13:40 | 42.06162 | 4.79606 | 34140 ft | 448 kts | 10° |
| 2026-04-30 13:40 | 42.12146 | 4.81971 | 34138 ft | 448 kts | 10° |
| 2026-04-30 13:41 | 42.18121 | 4.84338 | 34138 ft | 447 kts | 10° |
| 2026-04-30 13:41 | 42.23082 | 4.86307 | 34140 ft | 447 kts | 10° |
| 2026-04-30 13:42 | 42.29043 | 4.88678 | 34146 ft | 446 kts | 10° |
| 2026-04-30 13:42 | 42.37957 | 4.92234 | 34146 ft | 445 kts | 10° |
| 2026-04-30 13:43 | 42.43889 | 4.94604 | 34141 ft | 444 kts | 11° |
| 2026-04-30 13:43 | 42.49810 | 4.96978 | 34144 ft | 443 kts | 11° |
| 2026-04-30 13:44 | 42.55723 | 4.99351 | 34147 ft | 443 kts | 11° |
| 2026-04-30 13:44 | 42.61634 | 5.01727 | 34150 ft | 443 kts | 11° |
| 2026-04-30 13:45 | 42.70496 | 5.05296 | 34143 ft | 443 kts | 11° |
| 2026-04-30 13:46 | 42.76401 | 5.07685 | 34147 ft | 443 kts | 11° |
| 2026-04-30 13:46 | 42.82261 | 5.10061 | 34158 ft | 442 kts | 11° |
| 2026-04-30 13:47 | 42.88151 | 5.12453 | 34156 ft | 442 kts | 11° |
| 2026-04-30 13:47 | 42.94046 | 5.14852 | 34158 ft | 442 kts | 11° |
| 2026-04-30 13:48 | 42.99938 | 5.17253 | 34157 ft | 442 kts | 11° |
| 2026-04-30 13:48 | 43.05830 | 5.19648 | 34156 ft | 442 kts | 11° |
| 2026-04-30 13:49 | 43.11726 | 5.22026 | 34157 ft | 441 kts | 11° |
| 2026-04-30 13:49 | 43.17603 | 5.24407 | 34158 ft | 441 kts | 12° |
| 2026-04-30 13:50 | 43.23477 | 5.26794 | 34154 ft | 440 kts | 12° |
| 2026-04-30 13:50 | 43.32226 | 5.30359 | 34154 ft | 439 kts | 12° |
| 2026-04-30 13:51 | 43.38196 | 5.31620 | 34163 ft | 426 kts | 352° |
| 2026-04-30 13:51 | 43.43897 | 5.29957 | 34168 ft | 417 kts | 337° |
| 2026-04-30 13:52 | 43.49385 | 5.27379 | 34150 ft | 417 kts | 336° |
| 2026-04-30 13:52 | 43.54844 | 5.24819 | 34153 ft | 417 kts | 337° |
| 2026-04-30 13:53 | 43.60347 | 5.22277 | 34160 ft | 417 kts | 337° |
| 2026-04-30 13:53 | 43.65853 | 5.19750 | 34154 ft | 418 kts | 338° |
| 2026-04-30 13:54 | 43.71369 | 5.17218 | 34157 ft | 418 kts | 338° |
| 2026-04-30 13:54 | 43.76890 | 5.14682 | 34160 ft | 418 kts | 338° |
| 2026-04-30 13:55 | 43.82420 | 5.12136 | 34164 ft | 419 kts | 338° |
| 2026-04-30 13:55 | 43.87960 | 5.09578 | 34152 ft | 420 kts | 338° |
| 2026-04-30 13:56 | 43.93500 | 5.07016 | 34157 ft | 420 kts | 338° |
| 2026-04-30 13:56 | 43.98998 | 5.04468 | 34157 ft | 420 kts | 338° |
| 2026-04-30 13:57 | 44.04552 | 5.01888 | 34154 ft | 420 kts | 339° |
| 2026-04-30 13:57 | 44.10105 | 4.99305 | 34157 ft | 421 kts | 339° |
| 2026-04-30 13:58 | 44.18445 | 4.95417 | 34158 ft | 422 kts | 339° |
| 2026-04-30 13:59 | 44.24013 | 4.92812 | 34159 ft | 422 kts | 339° |
| 2026-04-30 13:59 | 44.29593 | 4.90198 | 34154 ft | 423 kts | 339° |
| 2026-04-30 14:00 | 44.35171 | 4.87581 | 34157 ft | 423 kts | 339° |
| 2026-04-30 14:00 | 44.43549 | 4.83641 | 34154 ft | 424 kts | 339° |
| 2026-04-30 14:01 | 44.49140 | 4.81004 | 34147 ft | 424 kts | 339° |
| 2026-04-30 14:01 | 44.54736 | 4.78366 | 34145 ft | 425 kts | 340° |
| 2026-04-30 14:02 | 44.60532 | 4.76690 | 34150 ft | 426 kts | 349° |
| 2026-04-30 14:02 | 44.66401 | 4.75495 | 34138 ft | 427 kts | 349° |
| 2026-04-30 14:03 | 44.72277 | 4.74264 | 34143 ft | 426 kts | 349° |
| 2026-04-30 14:03 | 44.78142 | 4.72985 | 34144 ft | 427 kts | 349° |
| 2026-04-30 14:04 | 44.84006 | 4.71683 | 34132 ft | 427 kts | 349° |
| 2026-04-30 14:04 | 44.89869 | 4.70376 | 34132 ft | 426 kts | 349° |
| 2026-04-30 14:05 | 44.95723 | 4.69069 | 34124 ft | 426 kts | 349° |
| 2026-04-30 14:05 | 45.01398 | 4.67801 | 34143 ft | 428 kts | 349° |
| 2026-04-30 14:06 | 45.10389 | 4.65784 | 34369 ft | 442 kts | 349° |
| 2026-04-30 14:07 | 45.16463 | 4.64424 | 34958 ft | 440 kts | 349° |
| 2026-04-30 14:07 | 45.19484 | 4.63743 | 35236 ft | 439 kts | 349° |
| 2026-04-30 14:07 | 45.22505 | 4.63053 | 35468 ft | 440 kts | 349° |
| 2026-04-30 14:08 | 45.28538 | 4.61667 | 35959 ft | 439 kts | 349° |
| 2026-04-30 14:08 | 45.31552 | 4.60973 | 36183 ft | 438 kts | 349° |
| 2026-04-30 14:08 | 45.37580 | 4.59588 | 36560 ft | 440 kts | 349° |
| 2026-04-30 14:09 | 45.40593 | 4.58895 | 36849 ft | 437 kts | 349° |
| 2026-04-30 14:09 | 45.43569 | 4.58210 | 37324 ft | 429 kts | 349° |
| 2026-04-30 14:09 | 45.49435 | 4.56859 | 37778 ft | 428 kts | 349° |
| 2026-04-30 14:10 | 45.52343 | 4.56186 | 37841 ft | 431 kts | 349° |
| 2026-04-30 14:10 | 45.55305 | 4.55500 | 38001 ft | 431 kts | 349° |
| 2026-04-30 14:10 | 45.58264 | 4.54816 | 38096 ft | 432 kts | 349° |
| 2026-04-30 14:11 | 45.64216 | 4.53439 | 38106 ft | 432 kts | 349° |
| 2026-04-30 14:11 | 45.70129 | 4.52066 | 38098 ft | 429 kts | 349° |
| 2026-04-30 14:12 | 45.75997 | 4.50699 | 38098 ft | 426 kts | 349° |
| 2026-04-30 14:12 | 45.81875 | 4.49329 | 38100 ft | 426 kts | 349° |
| 2026-04-30 14:13 | 45.87766 | 4.47953 | 38111 ft | 432 kts | 349° |
| 2026-04-30 14:13 | 45.93751 | 4.46552 | 38114 ft | 439 kts | 349° |
| 2026-04-30 14:14 | 45.99779 | 4.45140 | 38111 ft | 445 kts | 349° |
| 2026-04-30 14:14 | 46.05921 | 4.43699 | 38103 ft | 449 kts | 350° |
| 2026-04-30 14:15 | 46.11094 | 4.42482 | 38103 ft | 451 kts | 350° |
| 2026-04-30 14:15 | 46.18294 | 4.40786 | 38100 ft | 451 kts | 350° |
| 2026-04-30 14:16 | 46.24488 | 4.39324 | 38105 ft | 451 kts | 350° |
| 2026-04-30 14:16 | 46.30656 | 4.37737 | 38100 ft | 449 kts | 347° |
| 2026-04-30 14:17 | 46.36717 | 4.35627 | 38097 ft | 447 kts | 345° |
| 2026-04-30 14:17 | 46.42743 | 4.33424 | 38102 ft | 446 kts | 345° |
| 2026-04-30 14:18 | 46.48764 | 4.31269 | 38101 ft | 445 kts | 346° |
| 2026-04-30 14:18 | 46.57784 | 4.28090 | 38103 ft | 444 kts | 346° |
| 2026-04-30 14:19 | 46.66748 | 4.24929 | 38104 ft | 444 kts | 346° |
| 2026-04-30 14:20 | 46.72743 | 4.22807 | 38107 ft | 443 kts | 346° |
| 2026-04-30 14:20 | 46.81731 | 4.19617 | 38112 ft | 443 kts | 346° |
| 2026-04-30 14:21 | 46.87727 | 4.17482 | 38111 ft | 444 kts | 346° |
| 2026-04-30 14:22 | 46.96725 | 4.14271 | 38113 ft | 444 kts | 346° |
| 2026-04-30 14:22 | 47.05749 | 4.11038 | 38115 ft | 445 kts | 346° |
| 2026-04-30 14:23 | 47.17328 | 4.04522 | 38124 ft | 447 kts | 338° |
| 2026-04-30 14:24 | 47.25955 | 3.99278 | 38127 ft | 448 kts | 338° |
| 2026-04-30 14:25 | 47.37494 | 3.92398 | 38124 ft | 450 kts | 339° |
| 2026-04-30 14:26 | 47.46199 | 3.87189 | 38121 ft | 451 kts | 339° |
| 2026-04-30 14:27 | 47.54923 | 3.81946 | 38122 ft | 452 kts | 339° |
| 2026-04-30 14:27 | 47.60750 | 3.78445 | 38132 ft | 452 kts | 339° |
| 2026-04-30 14:28 | 47.69502 | 3.73191 | 38128 ft | 453 kts | 339° |
| 2026-04-30 14:28 | 47.75336 | 3.69678 | 38127 ft | 452 kts | 339° |
| 2026-04-30 14:29 | 47.86012 | 3.63225 | 38131 ft | 452 kts | 339° |
| 2026-04-30 14:31 | 48.01506 | 3.53791 | 38144 ft | 451 kts | 339° |
| 2026-04-30 14:31 | 48.10175 | 3.48446 | 38146 ft | 451 kts | 339° |
| 2026-04-30 14:32 | 48.18883 | 3.43064 | 38153 ft | 452 kts | 339° |
| 2026-04-30 14:33 | 48.24693 | 3.39463 | 38148 ft | 452 kts | 339° |
| 2026-04-30 14:33 | 48.33417 | 3.34041 | 38131 ft | 453 kts | 339° |
| 2026-04-30 14:34 | 48.38257 | 3.31023 | 38153 ft | 453 kts | 339° |
| 2026-04-30 14:34 | 48.44069 | 3.27373 | 38144 ft | 453 kts | 338° |
| 2026-04-30 14:35 | 48.52782 | 3.21804 | 38146 ft | 454 kts | 338° |
| 2026-04-30 14:36 | 48.58590 | 3.18084 | 38132 ft | 454 kts | 338° |
| 2026-04-30 14:36 | 48.64403 | 3.14353 | 38145 ft | 454 kts | 338° |
| 2026-04-30 14:37 | 48.70215 | 3.10617 | 38142 ft | 454 kts | 338° |
| 2026-04-30 14:37 | 48.76033 | 3.06870 | 38131 ft | 454 kts | 338° |
| 2026-04-30 14:38 | 48.81851 | 3.03113 | 38146 ft | 455 kts | 338° |
| 2026-04-30 14:38 | 48.87564 | 2.98988 | 38159 ft | 455 kts | 332° |
| 2026-04-30 14:39 | 48.93032 | 2.94128 | 38149 ft | 456 kts | 330° |
| 2026-04-30 14:39 | 48.98486 | 2.89197 | 38145 ft | 456 kts | 330° |
| 2026-04-30 14:40 | 49.06713 | 2.81899 | 38161 ft | 456 kts | 331° |
| 2026-04-30 14:40 | 49.12171 | 2.77087 | 38160 ft | 456 kts | 331° |
| 2026-04-30 14:41 | 49.17666 | 2.72229 | 38162 ft | 456 kts | 331° |
| 2026-04-30 14:41 | 49.23152 | 2.67365 | 38153 ft | 457 kts | 331° |
| 2026-04-30 14:42 | 49.28651 | 2.62473 | 38163 ft | 457 kts | 331° |
| 2026-04-30 14:42 | 49.34148 | 2.57568 | 38158 ft | 458 kts | 331° |
| 2026-04-30 14:43 | 49.39652 | 2.52645 | 38155 ft | 458 kts | 330° |
| 2026-04-30 14:43 | 49.45152 | 2.47716 | 38160 ft | 457 kts | 330° |
| 2026-04-30 14:44 | 49.50661 | 2.42817 | 38147 ft | 457 kts | 334° |
| 2026-04-30 14:44 | 49.56609 | 2.39519 | 38168 ft | 454 kts | 345° |
| 2026-04-30 14:45 | 49.62700 | 2.36873 | 38168 ft | 455 kts | 345° |
| 2026-04-30 14:45 | 49.68790 | 2.34188 | 38165 ft | 455 kts | 345° |
| 2026-04-30 14:46 | 49.74868 | 2.31439 | 38166 ft | 455 kts | 345° |
| 2026-04-30 14:46 | 49.80948 | 2.28657 | 38170 ft | 455 kts | 345° |
| 2026-04-30 14:47 | 49.87017 | 2.25872 | 38168 ft | 455 kts | 345° |
| 2026-04-30 14:47 | 49.93096 | 2.23078 | 38176 ft | 456 kts | 345° |
| 2026-04-30 14:48 | 49.99174 | 2.20279 | 38178 ft | 456 kts | 345° |
| 2026-04-30 14:48 | 50.05217 | 2.17489 | 38174 ft | 456 kts | 345° |
| 2026-04-30 14:49 | 50.11303 | 2.14671 | 38174 ft | 456 kts | 345° |
| 2026-04-30 14:49 | 50.17387 | 2.11847 | 38175 ft | 456 kts | 345° |
| 2026-04-30 14:50 | 50.26514 | 2.07597 | 38174 ft | 456 kts | 345° |
| 2026-04-30 14:51 | 50.35595 | 2.03123 | 38165 ft | 457 kts | 336° |
| 2026-04-30 14:51 | 50.40949 | 1.97791 | 38167 ft | 459 kts | 320° |
| 2026-04-30 14:52 | 50.43348 | 1.94490 | 38175 ft | 459 kts | 319° |
| 2026-04-30 14:52 | 50.50479 | 1.84518 | 38165 ft | 461 kts | 319° |
| 2026-04-30 14:53 | 50.57721 | 1.74571 | 38166 ft | 461 kts | 320° |
| 2026-04-30 14:54 | 50.67397 | 1.61257 | 38167 ft | 462 kts | 319° |
| 2026-04-30 14:55 | 50.74652 | 1.51211 | 38178 ft | 463 kts | 319° |
| 2026-04-30 14:56 | 50.84334 | 1.37746 | 38189 ft | 464 kts | 319° |
| 2026-04-30 14:57 | 50.91607 | 1.27587 | 38197 ft | 465 kts | 319° |
| 2026-04-30 14:58 | 51.01287 | 1.14008 | 38209 ft | 467 kts | 319° |
| 2026-04-30 14:58 | 51.08548 | 1.03670 | 38218 ft | 468 kts | 317° |
| 2026-04-30 15:00 | 51.20190 | 0.85413 | 38219 ft | 469 kts | 315° |
| 2026-04-30 15:01 | 51.29474 | 0.70887 | 38219 ft | 469 kts | 316° |
| 2026-04-30 15:01 | 51.36455 | 0.59920 | 38227 ft | 469 kts | 315° |
| 2026-04-30 15:02 | 51.41103 | 0.52591 | 38226 ft | 469 kts | 315° |
| 2026-04-30 15:03 | 51.52757 | 0.34114 | 38219 ft | 470 kts | 315° |
| 2026-04-30 15:04 | 51.64373 | 0.15564 | 38219 ft | 471 kts | 315° |
| 2026-04-30 15:05 | 51.71103 | 0.04570 | 38201 ft | 442 kts | 314° |
| 2026-04-30 15:06 | 51.75250 | -0.02283 | 38218 ft | 423 kts | 314° |
| 2026-04-30 15:07 | 51.83493 | -0.15927 | 38221 ft | 423 kts | 313° |
| 2026-04-30 15:08 | 51.91684 | -0.29541 | 38210 ft | 424 kts | 313° |
| 2026-04-30 15:09 | 52.01944 | -0.46704 | 38212 ft | 424 kts | 312° |
| 2026-04-30 15:10 | 52.10103 | -0.60432 | 36791 ft | 422 kts | 312° |
| 2026-04-30 15:11 | 52.18704 | -0.75000 | 32539 ft | 450 kts | 312° |
| 2026-04-30 15:11 | 52.23016 | -0.82329 | 30563 ft | 456 kts | 312° |
| 2026-04-30 15:12 | 52.30814 | -0.91470 | 27658 ft | 456 kts | 329° |
| 2026-04-30 15:13 | 52.36203 | -0.96660 | 26153 ft | 444 kts | 329° |
| 2026-04-30 15:14 | 52.46398 | -1.06795 | 23928 ft | 405 kts | 328° |
| 2026-04-30 15:14 | 52.53320 | -1.13777 | 22834 ft | 374 kts | 328° |
| 2026-04-30 15:16 | 52.63760 | -1.24362 | 21166 ft | 340 kts | 328° |
| 2026-04-30 15:17 | 52.72123 | -1.32862 | 19750 ft | 362 kts | 327° |
| 2026-04-30 15:18 | 52.82742 | -1.43692 | 17603 ft | 349 kts | 327° |
| 2026-04-30 15:19 | 52.88788 | -1.49883 | 16380 ft | 335 kts | 327° |